Time;durP1;ratioP1;P1;durP2;ratioP2;P2;SDS_P1;SDS_P2;PMS_P1;PMS_P2;Temp;Humidity;BMP_temperature;BMP_pressure;BME280_temperature;BME280_humidity;BME280_pressure;Samples;Min_cycle;Max_cycle;Signal;HPM_P1;HPM_P2
2022/10/03 00:03:13;;;;;;;;;;;;;;;12.07;100.00;99844.97;10029152;29;19940;-78
2022/10/03 00:08:24;;;;;;;;;;;;;;;12.12;100.00;99854.38;10061189;29;19938;-74
2022/10/03 00:13:29;;;;;;;;;;;;;;;12.04;100.00;99845.06;10061268;29;19928;-74
2022/10/03 00:18:40;;;;;;;;;;;;;;;12.03;100.00;99852.00;10061045;29;20280;-75
2022/10/03 00:23:49;;;;;;;;;;;;;;;12.01;100.00;99852.94;10060786;29;19943;-75
2022/10/03 00:29:00;;;;;;;;;;;;;;;12.11;100.00;99850.06;10061076;29;20006;-72
2022/10/03 00:34:09;;;;;;;;;;;;;;;11.97;100.00;99849.56;10060207;29;19950;-74
2022/10/03 00:39:27;;;;;;;;;;;;;;;11.93;100.00;99850.50;10060699;29;19938;-66
2022/10/03 00:45:04;;;;;;;;;;;;;;;12.06;100.00;99840.66;10060994;29;19932;-70
2022/10/03 00:50:34;;;;;;;;;;;;;;;11.99;100.00;99831.31;10062931;29;20234;-69
2022/10/03 00:55:46;;;;;;;;;;;;;;;12.13;100.00;99830.06;10062998;29;19935;-70
2022/10/03 01:00:50;;;;;;;;;;;;;;;12.00;100.00;99814.78;10062101;29;19928;-68
2022/10/03 01:05:59;;;;;;;;;;;;;;;12.05;100.00;99813.78;10062694;29;20474;-73
2022/10/03 01:11:11;;;;;;;;;;;;;;;12.07;100.00;99809.41;10062407;29;19932;-71
2022/10/03 01:16:18;;;;;;;;;;;;;;;12.01;100.00;99806.13;10062258;29;19928;-72
2022/10/03 01:21:29;;;;;;;;;;;;;;;12.06;100.00;99809.47;10061952;29;19934;-69
2022/10/03 01:26:43;;;;;;;;;;;;;;;12.07;100.00;99796.41;10062068;29;19932;-71
2022/10/03 01:31:53;;;;;;;;;;;;;;;12.00;100.00;99794.00;10061880;29;19947;-71
2022/10/03 01:37:01;;;;;;;;;;;;;;;12.12;100.00;99797.16;10061845;29;19934;-72
2022/10/03 01:42:08;;;;;;;;;;;;;;;12.02;100.00;99787.88;10062351;29;19960;-73
2022/10/03 01:47:21;;;;;;;;;;;;;;;12.17;100.00;99791.81;10061711;29;19928;-73
2022/10/03 01:52:27;;;;;;;;;;;;;;;12.08;100.00;99805.06;10061606;29;19928;-70
2022/10/03 01:57:34;;;;;;;;;;;;;;;12.06;100.00;99793.84;10061445;29;19935;-73
2022/10/03 02:02:42;;;;;;;;;;;;;;;12.13;100.00;99795.41;10061218;29;19928;-70
2022/10/03 02:07:49;;;;;;;;;;;;;;;12.16;100.00;99790.13;10061917;29;19979;-68
2022/10/03 02:12:57;;;;;;;;;;;;;;;12.19;100.00;99787.44;10064907;29;20272;-67
2022/10/03 02:18:11;;;;;;;;;;;;;;;12.30;100.00;99777.59;10068273;29;19964;-70
2022/10/03 02:23:22;;;;;;;;;;;;;;;12.12;100.00;99770.28;10068057;29;20321;-68
2022/10/03 02:28:34;;;;;;;;;;;;;;;12.18;100.00;99775.31;10068016;29;20295;-68
2022/10/03 02:33:51;;;;;;;;;;;;;;;12.25;100.00;99766.47;10067816;29;19935;-71
2022/10/03 02:39:08;;;;;;;;;;;;;;;12.27;100.00;99765.53;10067171;29;20321;-72
2022/10/03 02:44:21;;;;;;;;;;;;;;;12.29;100.00;99768.06;10067419;29;19960;-70
2022/10/03 02:49:43;;;;;;;;;;;;;;;12.09;100.00;99763.41;10067149;29;20334;-72
2022/10/03 02:55:00;;;;;;;;;;;;;;;12.06;100.00;99763.47;10067003;29;19928;-72
2022/10/03 03:00:08;;;;;;;;;;;;;;;12.24;100.00;99759.53;10066562;29;19928;-68
2022/10/03 03:05:38;;;;;;;;;;;;;;;12.24;100.00;99757.81;10066707;29;19936;-70
2022/10/03 03:11:00;;;;;;;;;;;;;;;12.22;100.00;99758.72;10044823;29;19928;-68
2022/10/03 03:16:20;;;;;;;;;;;;;;;12.20;100.00;99750.13;10066066;29;19928;-73
2022/10/03 03:21:29;;;;;;;;;;;;;;;12.11;100.00;99750.38;10065542;29;19996;-70
2022/10/03 03:26:47;;;;;;;;;;;;;;;12.14;100.00;99743.34;10065963;29;19936;-70
2022/10/03 03:32:02;;;;;;;;;;;;;;;12.13;100.00;99736.41;10065402;29;20227;-74
2022/10/03 03:37:08;;;;;;;;;;;;;;;12.05;100.00;99725.38;10065534;29;20368;-73
2022/10/03 03:42:26;;;;;;;;;;;;;;;12.07;100.00;99733.97;10065603;29;20349;-73
2022/10/03 03:47:37;;;;;;;;;;;;;;;12.09;100.00;99728.75;10065089;29;19928;-74
2022/10/03 03:52:50;;;;;;;;;;;;;;;12.05;100.00;99720.16;10064851;29;19983;-75
2022/10/03 03:58:00;;;;;;;;;;;;;;;12.06;100.00;99721.03;10064510;29;19928;-74
2022/10/03 04:03:14;;;;;;;;;;;;;;;12.00;100.00;99696.03;10064751;29;20011;-72
2022/10/03 04:08:24;;;;;;;;;;;;;;;12.12;100.00;99713.03;10064343;29;19928;-73
2022/10/03 04:13:35;;;;;;;;;;;;;;;11.97;100.00;99716.91;10064158;29;20019;-73
2022/10/03 04:18:59;;;;;;;;;;;;;;;12.02;100.00;99693.38;10063979;29;19928;-75
2022/10/03 04:24:11;;;;;;;;;;;;;;;12.12;100.00;99684.44;10063765;29;19954;-73
2022/10/03 04:29:35;;;;;;;;;;;;;;;12.15;100.00;99682.59;10063606;29;19928;-73
2022/10/03 04:34:45;;;;;;;;;;;;;;;12.09;100.00;99674.13;10059739;29;19955;-73
2022/10/03 04:39:52;;;;;;;;;;;;;;;12.00;100.00;99675.22;10062979;29;19928;-73
2022/10/03 04:45:01;;;;;;;;;;;;;;;11.97;100.00;99669.25;10063133;29;19928;-73
2022/10/03 04:50:09;;;;;;;;;;;;;;;11.95;100.00;99671.03;10063006;29;20023;-72
2022/10/03 04:55:22;;;;;;;;;;;;;;;11.84;100.00;99673.06;10062446;29;19939;-71
2022/10/03 05:00:28;;;;;;;;;;;;;;;11.91;100.00;99669.41;10062335;29;20006;-71
2022/10/03 05:05:40;;;;;;;;;;;;;;;11.89;100.00;99663.41;10062678;29;19928;-71
2022/10/03 05:10:57;;;;;;;;;;;;;;;11.97;100.00;99661.44;10062308;29;19980;-74
2022/10/03 05:16:06;;;;;;;;;;;;;;;12.01;100.00;99668.28;10061923;29;19939;-71
2022/10/03 05:21:14;;;;;;;;;;;;;;;12.07;100.00;99655.09;10062468;29;19984;-77
2022/10/03 05:26:22;;;;;;;;;;;;;;;12.00;100.00;99653.53;10061934;29;19948;-72
2022/10/03 05:31:48;;;;;;;;;;;;;;;12.00;100.00;99656.16;10061944;29;20073;-71
2022/10/03 05:37:03;;;;;;;;;;;;;;;12.10;100.00;99650.66;10062054;29;20404;-73
2022/10/03 05:42:31;;;;;;;;;;;;;;;12.15;100.00;99660.97;10061962;29;19928;-76
2022/10/03 05:47:45;;;;;;;;;;;;;;;12.16;100.00;99652.25;10066874;29;19928;-73
2022/10/03 05:52:56;;;;;;;;;;;;;;;12.18;100.00;99653.88;10069007;29;20010;-77
2022/10/03 05:58:21;;;;;;;;;;;;;;;12.23;100.00;99653.78;10068691;29;20019;-75
2022/10/03 06:03:42;;;;;;;;;;;;;;;12.25;100.00;99649.41;10068677;29;19979;-79
2022/10/03 06:08:54;;;;;;;;;;;;;;;12.30;100.00;99648.38;10064371;29;19928;-74
2022/10/03 06:14:11;;;;;;;;;;;;;;;12.25;100.00;99634.59;10062189;29;19929;-76
2022/10/03 06:19:21;;;;;;;;;;;;;;;12.49;100.00;99638.28;10068213;29;20031;-75
2022/10/03 06:24:41;;;;;;;;;;;;;;;12.48;100.00;99623.53;10067251;29;20310;-76
2022/10/03 06:30:04;;;;;;;;;;;;;;;12.52;100.00;99631.22;10067380;29;20014;-74
2022/10/03 06:35:23;;;;;;;;;;;;;;;12.38;100.00;99622.09;10066424;29;20138;-74
2022/10/03 06:40:40;;;;;;;;;;;;;;;12.44;100.00;99609.75;10067248;29;19940;-76
2022/10/03 06:46:01;;;;;;;;;;;;;;;12.34;100.00;99615.28;10067434;29;20243;-74
2022/10/03 06:51:19;;;;;;;;;;;;;;;12.36;100.00;99606.53;9394445;29;10000683;-76
2022/10/03 06:56:41;;;;;;;;;;;;;;;12.30;100.00;99619.75;10063298;29;20339;-73
2022/10/03 07:02:18;;;;;;;;;;;;;;;12.18;100.00;99625.28;10062857;29;19936;-75
2022/10/03 07:07:39;;;;;;;;;;;;;;;12.27;100.00;99614.59;9762470;29;9999690;-74
2022/10/03 07:12:53;;;;;;;;;;;;;;;12.26;100.00;99614.66;10057501;29;19932;-73
2022/10/03 07:18:05;;;;;;;;;;;;;;;12.44;100.00;99630.59;10059769;29;19960;-76
2022/10/03 07:23:19;;;;;;;;;;;;;;;12.58;100.00;99625.00;10059520;29;20066;-76
2022/10/03 07:28:39;;;;;;;;;;;;;;;12.53;100.00;99632.06;10060455;29;19936;-75
2022/10/03 07:34:00;;;;;;;;;;;;;;;12.74;100.00;99631.44;10060085;29;19928;-68
2022/10/03 07:39:24;;;;;;;;;;;;;;;12.90;100.00;99619.66;10058304;29;19950;-65
2022/10/03 07:44:45;;;;;;;;;;;;;;;13.04;100.00;99642.69;10033931;29;19932;-64
2022/10/03 07:49:57;;;;;;;;;;;;;;;13.13;100.00;99617.19;10049025;29;20361;-73
2022/10/03 07:55:18;;;;;;;;;;;;;;;13.11;100.00;99611.19;10060492;29;20464;-71
2022/10/03 08:00:25;;;;;;;;;;;;;;;13.10;100.00;99606.03;10061362;29;20022;-73
2022/10/03 08:05:37;;;;;;;;;;;;;;;13.08;100.00;99613.03;10060877;29;19944;-71
2022/10/03 08:10:54;;;;;;;;;;;;;;;13.10;100.00;99619.88;10060351;29;20022;-70
2022/10/03 08:16:10;;;;;;;;;;;;;;;13.07;100.00;99612.19;10028898;29;19932;-72
2022/10/03 08:21:20;;;;;;;;;;;;;;;13.15;100.00;99607.56;10022049;29;19968;-71
2022/10/03 08:26:31;;;;;;;;;;;;;;;13.20;100.00;99608.25;10022148;29;19929;-74
2022/10/03 08:31:55;;;;;;;;;;;;;;;13.40;100.00;99591.97;10022161;29;20019;-72
2022/10/03 08:37:16;;;;;;;;;;;;;;;13.56;100.00;99608.81;10053664;29;19928;-70
2022/10/03 08:42:38;;;;;;;;;;;;;;;13.59;100.00;99617.38;10059622;29;19928;-70
2022/10/03 08:48:03;;;;;;;;;;;;;;;13.54;100.00;99616.69;10059685;29;19932;-73
2022/10/03 08:53:30;;;;;;;;;;;;;;;13.42;100.00;99606.69;10059190;29;20258;-75
2022/10/03 08:58:53;;;;;;;;;;;;;;;13.36;100.00;99609.47;10059028;29;20371;-77
2022/10/03 09:04:13;;;;;;;;;;;;;;;13.30;100.00;99624.47;10058674;29;19932;-74
2022/10/03 09:09:31;;;;;;;;;;;;;;;13.19;100.00;99619.59;10058076;29;19991;-66
2022/10/03 09:14:48;;;;;;;;;;;;;;;13.40;100.00;99621.50;10046306;29;20360;-72
2022/10/03 09:20:06;;;;;;;;;;;;;;;13.39;100.00;99614.56;10043943;29;19935;-75
2022/10/03 09:25:34;;;;;;;;;;;;;;;13.58;100.00;99627.88;10058562;29;19928;-75
2022/10/03 09:30:47;;;;;;;;;;;;;;;13.49;100.00;99626.41;10045280;29;20358;-75
2022/10/03 09:36:09;;;;;;;;;;;;;;;13.24;100.00;99627.25;10036957;29;19940;-72
2022/10/03 09:41:28;;;;;;;;;;;;;;;13.20;100.00;99636.94;10020292;29;19933;-75
2022/10/03 09:52:38;;;;;;;;;;;;;;;13.34;100.00;99652.16;10037281;29;19928;-74
2022/10/03 09:57:50;;;;;;;;;;;;;;;13.41;100.00;99654.47;10058028;29;20405;-75
2022/10/03 10:03:08;;;;;;;;;;;;;;;13.46;100.00;99657.78;10057924;29;20362;-74
2022/10/03 10:08:38;;;;;;;;;;;;;;;13.46;100.00;99662.16;10027649;29;19958;-75
2022/10/03 10:14:05;;;;;;;;;;;;;;;13.58;100.00;99670.41;10025132;29;19983;-78
2022/10/03 10:19:34;;;;;;;;;;;;;;;13.59;100.00;99677.34;10020221;29;19944;-75
2022/10/03 10:25:08;;;;;;;;;;;;;;;13.65;100.00;99673.69;10010870;29;19929;-73
2022/10/03 10:30:20;;;;;;;;;;;;;;;13.61;100.00;99679.91;10019947;29;20590;-76
2022/10/03 10:35:46;;;;;;;;;;;;;;;13.67;100.00;99693.59;10024964;29;19939;-74
2022/10/03 10:41:07;;;;;;;;;;;;;;;13.75;100.00;99696.78;10027980;29;19947;-75
2022/10/03 10:46:29;;;;;;;;;;;;;;;13.62;100.00;99703.31;10027477;29;19932;-77
2022/10/03 10:51:51;;;;;;;;;;;;;;;13.42;100.00;99707.47;10063671;29;19928;-75
2022/10/03 10:57:09;;;;;;;;;;;;;;;13.62;100.00;99716.34;10045821;29;19933;-76
2022/10/03 11:02:39;;;;;;;;;;;;;;;13.69;100.00;99730.03;10046356;29;19943;-76
2022/10/03 11:08:02;;;;;;;;;;;;;;;14.51;100.00;99746.38;10062570;29;20334;-73
2022/10/03 11:13:21;;;;;;;;;;;;;;;14.87;100.00;99761.56;10063293;29;20011;-74
2022/10/03 11:18:42;;;;;;;;;;;;;;;15.08;100.00;99768.59;10036197;29;20354;-67
2022/10/03 11:24:01;;;;;;;;;;;;;;;15.67;100.00;99786.38;10024689;29;19928;-68
2022/10/03 11:29:19;;;;;;;;;;;;;;;16.67;97.30;99790.91;10039723;29;19932;-69
2022/10/03 11:34:46;;;;;;;;;;;;;;;16.09;92.47;99795.09;10050561;29;19928;-66
2022/10/03 11:39:54;;;;;;;;;;;;;;;16.42;87.35;99819.03;10050250;29;20286;-69
2022/10/03 11:45:00;;;;;;;;;;;;;;;17.56;76.17;99795.50;10063710;29;19938;-74
2022/10/03 11:50:18;;;;;;;;;;;;;;;17.69;72.58;99809.75;10064364;29;19963;-76
2022/10/03 11:55:25;;;;;;;;;;;;;;;19.03;66.94;99805.53;10062971;29;20010;-74
2022/10/03 12:00:33;;;;;;;;;;;;;;;19.27;62.10;99820.00;10063985;29;19939;-74
2022/10/03 12:05:44;;;;;;;;;;;;;;;19.83;60.63;99808.16;10063911;29;19928;-76
2022/10/03 12:10:55;;;;;;;;;;;;;;;19.42;59.01;99826.25;10026009;29;19984;-74
2022/10/03 12:16:01;;;;;;;;;;;;;;;19.60;56.25;99829.66;10026673;29;20298;-73
2022/10/03 12:21:07;;;;;;;;;;;;;;;19.25;57.58;99826.28;10025917;29;19975;-71
2022/10/03 12:26:16;;;;;;;;;;;;;;;18.73;56.69;99832.56;10025284;29;19942;-75
2022/10/03 12:31:22;;;;;;;;;;;;;;;18.28;57.44;99828.69;10025161;29;20027;-74
2022/10/03 12:36:30;;;;;;;;;;;;;;;18.06;58.65;99858.72;10025083;29;20015;-74
2022/10/03 12:41:42;;;;;;;;;;;;;;;18.00;57.87;99861.66;10025019;29;19975;-75
2022/10/03 12:46:55;;;;;;;;;;;;;;;17.57;57.33;99878.56;10024827;29;19981;-74
2022/10/03 12:52:09;;;;;;;;;;;;;;;17.04;57.56;99874.84;10024569;29;19928;-76
2022/10/03 12:57:32;;;;;;;;;;;;;;;17.87;54.00;99869.25;10023830;29;20024;-73
2022/10/03 13:02:39;;;;;;;;;;;;;;;19.06;53.02;99868.50;10024091;29;19949;-71
2022/10/03 13:07:51;;;;;;;;;;;;;;;19.34;53.12;99884.56;10024753;29;20084;-72
2022/10/03 13:13:01;;;;;;;;;;;;;;;17.98;53.76;99895.03;10024005;29;19940;-73
2022/10/03 13:18:09;;;;;;;;;;;;;;;17.14;54.23;99905.00;10024081;29;20015;-71
2022/10/03 13:23:19;;;;;;;;;;;;;;;17.56;52.19;99918.88;10023458;29;20012;-73
2022/10/03 13:28:30;;;;;;;;;;;;;;;17.97;51.30;99906.44;10034972;29;19938;-75
2022/10/03 13:33:37;;;;;;;;;;;;;;;18.02;51.24;99910.53;10061589;29;20014;-72
2022/10/03 13:38:51;;;;;;;;;;;;;;;18.05;51.66;99918.28;10061228;29;19952;-72
2022/10/03 13:43:58;;;;;;;;;;;;;;;17.89;51.03;99925.19;10060736;29;19934;-73
2022/10/03 13:49:09;;;;;;;;;;;;;;;17.64;52.16;99929.00;10036671;29;19934;-73
2022/10/03 13:54:19;;;;;;;;;;;;;;;17.39;52.43;99939.72;10061487;29;19966;-74
2022/10/03 13:59:32;;;;;;;;;;;;;;;17.07;53.53;99945.50;10060723;29;19959;-74
2022/10/03 14:04:43;;;;;;;;;;;;;;;16.63;54.80;99954.41;10060354;29;19993;-72
2022/10/03 14:09:56;;;;;;;;;;;;;;;16.23;54.23;99956.88;10047983;29;19929;-76
2022/10/03 14:15:17;;;;;;;;;;;;;;;15.96;54.56;99967.50;10029951;29;20067;-71
2022/10/03 14:20:27;;;;;;;;;;;;;;;15.72;54.42;99957.97;10029808;29;19929;-73
2022/10/03 14:25:34;;;;;;;;;;;;;;;15.52;54.91;99983.16;10029570;29;20024;-75
2022/10/03 14:30:47;;;;;;;;;;;;;;;15.40;55.26;99981.84;10060049;29;19928;-71
2022/10/03 14:36:18;;;;;;;;;;;;;;;15.33;56.08;99985.53;10029371;29;19932;-72
2022/10/03 14:41:25;;;;;;;;;;;;;;;15.15;56.12;99996.66;10041748;29;20332;-66
2022/10/03 14:46:31;;;;;;;;;;;;;;;15.13;57.01;100014.16;10067005;29;19928;-66
2022/10/03 14:51:38;;;;;;;;;;;;;;;15.16;56.57;100023.63;9729146;29;9999643;-70
2022/10/03 14:56:43;;;;;;;;;;;;;;;15.04;57.02;100024.91;10063832;29;20409;-73
2022/10/03 15:01:50;;;;;;;;;;;;;;;14.95;57.34;100031.31;10060565;29;20015;-70
2022/10/03 15:06:56;;;;;;;;;;;;;;;14.86;56.90;100041.19;10062881;29;19992;-68
2022/10/03 15:12:04;;;;;;;;;;;;;;;14.78;57.35;100048.44;10062248;29;20354;-71
2022/10/03 15:17:16;;;;;;;;;;;;;;;14.75;57.81;100056.38;10062544;29;20413;-72
2022/10/03 15:22:26;;;;;;;;;;;;;;;14.70;58.43;100064.34;10060770;29;19955;-70
2022/10/03 15:27:29;;;;;;;;;;;;;;;14.62;58.03;100068.09;10062298;29;20311;-71
2022/10/03 15:32:35;;;;;;;;;;;;;;;14.43;58.04;100073.03;10058050;29;20039;-71
2022/10/03 15:37:41;;;;;;;;;;;;;;;14.47;58.76;100084.25;10051193;29;20350;-71
2022/10/03 15:42:52;;;;;;;;;;;;;;;14.38;59.04;100084.50;10061625;29;20006;-70
2022/10/03 15:47:58;;;;;;;;;;;;;;;14.37;59.37;100088.91;10061420;29;20204;-65
2022/10/03 15:53:09;;;;;;;;;;;;;;;14.31;59.71;100088.19;10060844;29;20384;-66
2022/10/03 15:58:33;;;;;;;;;;;;;;;14.25;60.02;100088.38;10061160;29;19928;-65
2022/10/03 16:03:42;;;;;;;;;;;;;;;14.20;60.61;100098.94;10060139;29;19928;-67
2022/10/03 16:08:54;;;;;;;;;;;;;;;14.05;60.93;100103.75;10059868;29;20015;-68
2022/10/03 16:14:11;;;;;;;;;;;;;;;14.05;60.79;100106.34;10057695;29;20269;-66
2022/10/03 16:19:38;;;;;;;;;;;;;;;14.03;60.98;100113.38;10055788;29;19938;-74
2022/10/03 16:24:45;;;;;;;;;;;;;;;14.01;61.09;100104.72;10046802;29;19942;-74
2022/10/03 16:29:52;;;;;;;;;;;;;;;13.91;60.93;100104.97;10059469;29;19967;-75
2022/10/03 16:34:59;;;;;;;;;;;;;;;13.86;61.30;100119.91;10059406;29;20018;-74
2022/10/03 16:40:05;;;;;;;;;;;;;;;13.82;61.49;100120.03;10060170;29;20011;-76
2022/10/03 16:45:18;;;;;;;;;;;;;;;13.78;62.13;100126.22;10058841;29;19936;-75
2022/10/03 16:50:25;;;;;;;;;;;;;;;13.82;62.25;100128.69;10059313;29;20012;-75
2022/10/03 16:55:31;;;;;;;;;;;;;;;13.79;62.71;100125.31;10058185;29;19939;-75
2022/10/03 17:00:38;;;;;;;;;;;;;;;13.70;63.25;100128.19;10057815;29;20425;-75
2022/10/03 17:05:43;;;;;;;;;;;;;;;13.61;63.95;100126.69;10057906;29;19944;-75
2022/10/03 17:10:53;;;;;;;;;;;;;;;13.52;65.02;100129.53;10057638;29;19932;-74
2022/10/03 17:15:59;;;;;;;;;;;;;;;13.47;65.50;100131.38;10057493;29;19935;-75
2022/10/03 17:21:08;;;;;;;;;;;;;;;13.38;66.04;100138.56;10058769;29;20076;-76
2022/10/03 17:26:19;;;;;;;;;;;;;;;13.37;66.24;100137.75;10058473;29;19928;-74
2022/10/03 17:31:27;;;;;;;;;;;;;;;13.39;66.59;100138.53;10057506;29;19943;-76
2022/10/03 17:36:48;;;;;;;;;;;;;;;13.37;67.01;100155.97;10057778;29;20336;-75
2022/10/03 17:41:56;;;;;;;;;;;;;;;13.37;67.83;100147.31;10051475;29;19928;-73
2022/10/03 17:47:03;;;;;;;;;;;;;;;13.31;69.21;100152.66;10066385;29;19939;-74
2022/10/03 17:52:13;;;;;;;;;;;;;;;13.19;72.20;100156.41;10065638;29;20528;-76
2022/10/03 17:57:21;;;;;;;;;;;;;;;13.21;72.72;100162.44;10065932;29;19932;-76
2022/10/03 18:02:30;;;;;;;;;;;;;;;13.13;73.61;100166.97;10065286;29;19964;-78
2022/10/03 18:07:35;;;;;;;;;;;;;;;13.02;74.87;100163.78;10049566;29;20345;-74
2022/10/03 18:12:41;;;;;;;;;;;;;;;12.93;76.31;100169.16;10065237;29;20243;-76
2022/10/03 18:17:53;;;;;;;;;;;;;;;12.90;76.80;100164.03;10064931;29;19928;-74
2022/10/03 18:22:59;;;;;;;;;;;;;;;12.89;77.63;100174.47;10064318;29;19943;-74
2022/10/03 18:28:08;;;;;;;;;;;;;;;12.85;77.83;100173.69;10063787;29;19952;-76
2022/10/03 18:33:15;;;;;;;;;;;;;;;12.73;78.40;100182.59;10063692;29;19944;-75
2022/10/03 18:38:21;;;;;;;;;;;;;;;12.67;78.94;100182.75;10062948;29;20015;-74
2022/10/03 18:43:31;;;;;;;;;;;;;;;12.81;78.64;100185.06;10046999;29;20334;-75
2022/10/03 18:48:38;;;;;;;;;;;;;;;12.73;80.46;100193.03;10062275;29;19942;-73
2022/10/03 18:53:44;;;;;;;;;;;;;;;12.77;80.93;100191.22;10061132;29;19947;-74
2022/10/03 18:58:55;;;;;;;;;;;;;;;12.82;81.25;100192.00;10063976;29;20346;-74
2022/10/03 19:04:00;;;;;;;;;;;;;;;12.78;81.90;100198.16;10064181;29;19980;-75
2022/10/03 19:09:08;;;;;;;;;;;;;;;12.76;82.29;100195.59;10061355;29;20015;-73
2022/10/03 19:14:15;;;;;;;;;;;;;;;12.72;82.54;100198.28;10063695;29;19932;-77
2022/10/03 19:19:21;;;;;;;;;;;;;;;12.70;83.22;100203.50;10063417;29;20023;-75
2022/10/03 19:24:28;;;;;;;;;;;;;;;12.58;84.36;100200.34;10062880;29;20044;-70
2022/10/03 19:29:54;;;;;;;;;;;;;;;12.56;85.45;100209.91;10060961;29;19936;-70
2022/10/03 19:34:59;;;;;;;;;;;;;;;12.57;85.69;100206.41;10062269;29;20379;-69
2022/10/03 19:40:11;;;;;;;;;;;;;;;12.52;86.31;100209.13;10061424;29;19936;-70
2022/10/03 19:45:18;;;;;;;;;;;;;;;12.56;86.80;100212.53;10061240;29;20471;-73
2022/10/03 19:50:26;;;;;;;;;;;;;;;12.60;87.09;100214.16;10062162;29;20014;-74
2022/10/03 19:55:30;;;;;;;;;;;;;;;12.49;88.02;100218.75;10062205;29;20358;-74
2022/10/03 20:00:36;;;;;;;;;;;;;;;12.58;87.45;100219.38;10062118;29;20027;-74
2022/10/03 20:05:43;;;;;;;;;;;;;;;12.58;87.83;100216.78;10061007;29;19964;-76
2022/10/03 20:10:52;;;;;;;;;;;;;;;12.58;88.67;100218.56;10061370;29;19968;-75
2022/10/03 20:15:57;;;;;;;;;;;;;;;12.64;88.76;100221.03;10061741;29;20235;-75
2022/10/03 20:21:01;;;;;;;;;;;;;;;12.64;89.14;100221.88;10061855;29;19928;-80
2022/10/03 20:26:07;;;;;;;;;;;;;;;12.57;89.96;100228.09;10059887;29;19932;-75
2022/10/03 20:31:18;;;;;;;;;;;;;;;12.50;91.62;100238.66;10060758;29;20040;-75
2022/10/03 20:36:26;;;;;;;;;;;;;;;12.60;91.65;100221.97;10027876;29;19981;-68
2022/10/03 20:41:35;;;;;;;;;;;;;;;12.65;91.19;100218.38;10061218;29;20255;-71
2022/10/03 20:46:42;;;;;;;;;;;;;;;12.67;91.76;100216.59;10049215;29;19939;-70
2022/10/03 20:51:56;;;;;;;;;;;;;;;12.73;92.09;100213.03;9722849;29;9999998;-75
2022/10/03 20:57:02;;;;;;;;;;;;;;;12.79;91.72;100218.09;10058639;29;20437;-75
2022/10/03 21:02:13;;;;;;;;;;;;;;;12.78;92.53;100206.84;10058033;29;20706;-75
2022/10/03 21:07:23;;;;;;;;;;;;;;;12.73;93.19;100216.47;10057672;29;19928;-74
2022/10/03 21:12:27;;;;;;;;;;;;;;;12.69;93.87;100207.03;10057279;29;20007;-76
2022/10/03 21:17:32;;;;;;;;;;;;;;;12.72;93.92;100208.69;10057964;29;19931;-76
2022/10/03 21:22:35;;;;;;;;;;;;;;;12.61;94.67;100223.69;10088455;29;19928;-75
2022/10/03 21:27:46;;;;;;;;;;;;;;;12.62;95.58;100220.19;10095963;29;20365;-74
2022/10/03 21:33:05;;;;;;;;;;;;;;;12.62;95.73;100214.97;10095785;29;19946;-74
2022/10/03 21:38:15;;;;;;;;;;;;;;;12.60;96.91;100219.34;10095633;29;20047;-73
2022/10/03 21:43:25;;;;;;;;;;;;;;;12.66;96.10;100221.84;10095564;29;19976;-74
2022/10/03 21:48:36;;;;;;;;;;;;;;;12.63;97.58;100219.31;10070794;29;20282;-75
2022/10/03 21:53:46;;;;;;;;;;;;;;;12.68;96.83;100223.50;10057349;29;20357;-77
2022/10/03 21:59:06;;;;;;;;;;;;;;;12.64;97.93;100223.63;10057149;29;20610;-74
2022/10/03 22:04:15;;;;;;;;;;;;;;;12.65;97.71;100220.13;10057002;29;19972;-74
2022/10/03 22:09:18;;;;;;;;;;;;;;;12.70;97.52;100216.53;10056964;29;19932;-74
2022/10/03 22:14:29;;;;;;;;;;;;;;;12.58;98.25;100218.56;10057197;29;20350;-66
2022/10/03 22:19:36;;;;;;;;;;;;;;;12.51;99.67;100223.00;10058525;29;20019;-66
2022/10/03 22:24:47;;;;;;;;;;;;;;;12.60;99.76;100211.53;10058572;29;19932;-66
2022/10/03 22:29:55;;;;;;;;;;;;;;;12.66;99.00;100212.31;10061186;29;19932;-65
2022/10/03 22:35:06;;;;;;;;;;;;;;;12.67;99.27;100215.75;10064599;29;19938;-74
2022/10/03 22:40:09;;;;;;;;;;;;;;;12.52;100.00;100211.72;10064599;29;19960;-74
2022/10/03 22:45:15;;;;;;;;;;;;;;;12.49;100.00;100210.94;10065754;29;20342;-71
2022/10/03 22:50:23;;;;;;;;;;;;;;;12.57;100.00;100201.22;10067160;29;19929;-72
2022/10/03 22:55:26;;;;;;;;;;;;;;;12.47;100.00;100207.50;10067482;29;19927;-72
2022/10/03 23:00:34;;;;;;;;;;;;;;;12.39;100.00;100210.25;10067381;29;19947;-72
2022/10/03 23:06:05;;;;;;;;;;;;;;;12.43;100.00;100200.63;10066969;29;20018;-73
2022/10/03 23:11:13;;;;;;;;;;;;;;;12.44;100.00;100202.34;10066504;29;19969;-70
2022/10/03 23:16:23;;;;;;;;;;;;;;;12.38;100.00;100205.94;10066483;29;19928;-68
2022/10/03 23:21:27;;;;;;;;;;;;;;;12.33;100.00;100214.72;10066934;29;19939;-69
2022/10/03 23:26:38;;;;;;;;;;;;;;;12.46;100.00;100213.56;10066373;29;19934;-72
2022/10/03 23:31:54;;;;;;;;;;;;;;;12.46;100.00;100224.84;10066207;29;19928;-72
2022/10/03 23:37:04;;;;;;;;;;;;;;;12.48;100.00;100224.81;10065643;29;19928;-75
2022/10/03 23:42:09;;;;;;;;;;;;;;;12.43;100.00;100224.91;10065181;29;19938;-73
2022/10/03 23:47:13;;;;;;;;;;;;;;;12.42;100.00;100228.41;10065342;29;19928;-75
2022/10/03 23:52:22;;;;;;;;;;;;;;;12.40;100.00;100218.91;10065440;29;20315;-71
2022/10/03 23:57:28;;;;;;;;;;;;;;;12.47;100.00;100220.50;10064759;29;20248;-75
